createdAt,value
2019-05-30T00:01:23.191Z,13.30
2019-05-30T00:03:50.774Z,13.30
2019-05-30T00:06:18.232Z,13.40
2019-05-30T00:08:45.707Z,13.40
2019-05-30T00:11:13.166Z,13.40
2019-05-30T00:13:40.609Z,13.50
2019-05-30T00:16:08.027Z,13.40
2019-05-30T00:18:36.653Z,13.40
2019-05-30T00:21:05.053Z,13.40
2019-05-30T00:23:32.537Z,13.40
2019-05-30T00:26:01.290Z,13.40
2019-05-30T00:28:28.849Z,13.40
2019-05-30T00:30:56.394Z,13.40
2019-05-30T00:33:23.827Z,13.40
2019-05-30T00:35:51.286Z,13.30
2019-05-30T00:38:19.404Z,13.30
2019-05-30T00:40:46.799Z,13.30
2019-05-30T00:43:14.207Z,13.30
2019-05-30T00:45:41.670Z,13.30
2019-05-30T00:48:09.079Z,13.30
2019-05-30T00:50:36.504Z,13.30
2019-05-30T00:53:05.358Z,13.30
2019-05-30T00:55:32.917Z,13.30
2019-05-30T00:58:00.618Z,13.30
2019-05-30T01:00:42.668Z,13.30
2019-05-30T01:02:59.861Z,13.30
2019-05-30T01:05:27.340Z,13.30
2019-05-30T01:07:54.703Z,13.30
2019-05-30T01:10:22.129Z,13.30
2019-05-30T01:12:49.606Z,13.30
2019-05-30T01:15:17.248Z,13.30
2019-05-30T01:17:44.597Z,13.40
2019-05-30T01:20:14.471Z,13.30
2019-05-30T01:22:41.911Z,13.30
2019-05-30T01:25:09.654Z,13.30
2019-05-30T01:27:37.071Z,13.30
2019-05-30T01:30:05.710Z,13.30
2019-05-30T01:32:33.165Z,13.30
2019-05-30T01:35:01.776Z,13.30
2019-05-30T01:37:29.446Z,13.30
2019-05-30T01:39:57.674Z,13.30
2019-05-30T01:42:25.255Z,13.30
2019-05-30T01:44:52.872Z,13.30
2019-05-30T01:47:20.365Z,13.30
2019-05-30T01:49:47.926Z,13.30
2019-05-30T01:52:15.359Z,13.30
2019-05-30T01:54:42.667Z,13.30
2019-05-30T01:57:10.161Z,13.20
2019-05-30T01:59:37.686Z,13.30
2019-05-30T02:02:05.439Z,13.30
2019-05-30T02:04:33.116Z,13.30
2019-05-30T02:07:01.017Z,13.20
2019-05-30T02:09:28.437Z,13.20
2019-05-30T02:11:55.805Z,13.20
2019-05-30T02:14:23.231Z,13.20
2019-05-30T02:16:50.703Z,13.20
2019-05-30T02:19:18.225Z,13.20
2019-05-30T02:21:45.764Z,13.20
2019-05-30T02:24:13.202Z,13.20
2019-05-30T02:26:40.535Z,13.20
2019-05-30T02:29:08.362Z,13.20
2019-05-30T02:31:39.454Z,13.20
2019-05-30T02:34:05.842Z,13.20
2019-05-30T02:36:34.446Z,13.20
2019-05-30T02:39:03.043Z,13.20
2019-05-30T02:41:30.795Z,13.20
2019-05-30T02:43:58.221Z,13.20
2019-05-30T02:46:25.539Z,13.20
2019-05-30T02:48:58.931Z,13.20
2019-05-30T02:51:22.090Z,13.20
2019-05-30T02:53:50.004Z,13.20
2019-05-30T02:56:17.560Z,13.20
2019-05-30T02:58:45.857Z,13.20
2019-05-30T03:01:14.457Z,13.20
2019-05-30T03:03:42.324Z,13.20
2019-05-30T03:06:13.555Z,13.20
2019-05-30T03:08:40.458Z,13.20
2019-05-30T03:11:10.814Z,13.30
2019-05-30T03:13:38.067Z,13.20
2019-05-30T03:16:07.399Z,13.30
2019-05-30T03:18:34.858Z,13.30
2019-05-30T03:21:05.721Z,13.30
2019-05-30T03:23:33.510Z,13.30
2019-05-30T03:26:02.568Z,13.30
2019-05-30T03:28:30.189Z,13.30
2019-05-30T03:30:58.701Z,13.40
2019-05-30T03:33:38.848Z,13.40
2019-05-30T03:35:55.582Z,13.40
2019-05-30T03:38:23.335Z,13.40
2019-05-30T03:40:50.840Z,13.40
2019-05-30T03:43:18.366Z,13.40
2019-05-30T03:45:46.141Z,13.40
2019-05-30T03:48:17.160Z,13.50
2019-05-30T03:50:49.171Z,13.50
2019-05-30T03:53:16.898Z,13.50
2019-05-30T03:55:50.942Z,13.50
2019-05-30T03:58:33.114Z,13.50
2019-05-30T04:01:05.989Z,13.40
2019-05-30T04:03:47.917Z,13.40
2019-05-30T04:06:26.979Z,13.40
2019-05-30T04:09:00.343Z,13.40
2019-05-30T04:11:38.982Z,13.40
2019-05-30T04:14:11.525Z,13.40
2019-05-30T04:16:40.002Z,13.40
2019-05-30T04:19:08.019Z,13.50
2019-05-30T04:21:35.674Z,13.40
2019-05-30T04:24:07.127Z,13.40
2019-05-30T04:26:34.900Z,13.40
2019-05-30T04:29:02.407Z,13.50
2019-05-30T04:31:29.920Z,13.40
2019-05-30T04:33:57.482Z,13.50
2019-05-30T04:36:26.570Z,13.50
2019-05-30T04:38:54.145Z,13.50
2019-05-30T04:41:22.137Z,13.50
2019-05-30T04:43:50.082Z,13.50
2019-05-30T04:46:19.546Z,13.50
2019-05-30T04:48:47.235Z,13.50
2019-05-30T04:51:16.334Z,13.50
2019-05-30T04:53:43.932Z,13.50
2019-05-30T04:56:12.649Z,13.60
2019-05-30T04:58:42.850Z,13.70
2019-05-30T05:01:13.120Z,13.70
2019-05-30T05:03:45.718Z,13.70
2019-05-30T05:06:11.586Z,13.80
2019-05-30T05:08:39.489Z,13.80
2019-05-30T05:11:06.944Z,13.90
2019-05-30T05:13:35.897Z,14.00
2019-05-30T05:16:21.342Z,14.10
2019-05-30T05:18:33.259Z,14.20
2019-05-30T05:21:01.052Z,14.20
2019-05-30T05:23:30.876Z,14.30
2019-05-30T05:26:01.179Z,14.30
2019-05-30T05:28:28.762Z,14.40
2019-05-30T05:30:56.119Z,14.30
2019-05-30T05:33:24.751Z,14.30
2019-05-30T05:35:52.348Z,14.40
2019-05-30T05:38:20.208Z,14.40
2019-05-30T05:40:47.699Z,14.40
2019-05-30T05:43:16.626Z,14.40
2019-05-30T05:45:44.172Z,14.40
2019-05-30T05:48:11.900Z,14.60
2019-05-30T05:50:39.285Z,14.50
2019-05-30T05:53:06.853Z,14.50
2019-05-30T05:55:34.263Z,14.50
2019-05-30T05:58:04.319Z,14.50
2019-05-30T06:00:31.967Z,14.50
2019-05-30T06:02:59.330Z,14.40
2019-05-30T06:05:28.443Z,14.40
2019-05-30T06:07:55.897Z,14.40
2019-05-30T06:10:23.833Z,14.50
2019-05-30T06:12:51.300Z,14.50
2019-05-30T06:15:18.848Z,14.60
2019-05-30T06:17:46.240Z,14.70
2019-05-30T06:20:14.606Z,14.80
2019-05-30T06:22:41.996Z,14.80
2019-05-30T06:25:09.912Z,14.80
2019-05-30T06:27:37.366Z,14.80
2019-05-30T06:30:05.630Z,14.70
2019-05-30T06:32:33.317Z,14.70
2019-05-30T06:35:00.908Z,14.90
2019-05-30T06:37:29.352Z,14.60
2019-05-30T06:39:56.927Z,14.60
2019-05-30T06:42:24.271Z,14.60
2019-05-30T06:44:51.699Z,14.70
2019-05-30T06:47:20.160Z,14.70
2019-05-30T06:49:49.679Z,14.70
2019-05-30T06:52:17.114Z,14.70
2019-05-30T06:54:44.723Z,14.70
2019-05-30T06:57:12.360Z,14.60
2019-05-30T06:59:39.799Z,14.70
2019-05-30T07:02:07.346Z,14.70
2019-05-30T07:04:50.971Z,14.80
2019-05-30T07:07:06.149Z,14.80
2019-05-30T07:09:33.467Z,14.80
2019-05-30T07:12:01.068Z,14.90
2019-05-30T07:14:29.311Z,14.90
2019-05-30T07:16:57.074Z,15.00
2019-05-30T07:19:25.349Z,15.10
2019-05-30T07:21:53.219Z,15.20
2019-05-30T07:24:20.671Z,15.20
2019-05-30T07:26:49.454Z,15.30
2019-05-30T07:29:16.957Z,15.40
2019-05-30T07:31:44.380Z,15.40
2019-05-30T07:34:11.948Z,15.40
2019-05-30T07:36:39.590Z,15.50
2019-05-30T07:39:07.694Z,15.50
2019-05-30T07:41:35.292Z,15.60
2019-05-30T07:44:04.728Z,15.60
2019-05-30T07:46:33.024Z,15.70
2019-05-30T07:49:00.605Z,15.60
2019-05-30T07:51:28.493Z,15.60
2019-05-30T07:53:56.023Z,15.50
2019-05-30T07:56:23.488Z,15.50
2019-05-30T07:58:51.203Z,15.40
2019-05-30T08:01:18.640Z,15.30
2019-05-30T08:03:46.201Z,15.20
2019-05-30T08:06:13.883Z,15.20
2019-05-30T08:08:41.240Z,15.10
2019-05-30T08:11:10.259Z,15.10
2019-05-30T08:13:37.920Z,15.10
2019-05-30T08:16:05.555Z,15.00
2019-05-30T08:18:33.748Z,15.00
2019-05-30T08:21:01.522Z,15.00
2019-05-30T08:23:30.089Z,15.10
2019-05-30T08:25:57.698Z,15.10
2019-05-30T08:28:25.076Z,15.20
2019-05-30T08:30:52.698Z,15.40
2019-05-30T08:33:21.695Z,15.50
2019-05-30T08:35:50.407Z,15.60
2019-05-30T08:38:17.862Z,15.70
2019-05-30T08:40:45.468Z,15.90
2019-05-30T08:43:13.226Z,16.10
2019-05-30T08:45:41.704Z,16.30
2019-05-30T08:48:09.317Z,16.50
2019-05-30T08:50:40.360Z,16.50
2019-05-30T08:53:06.100Z,16.60
2019-05-30T08:55:34.380Z,16.70
2019-05-30T08:58:01.888Z,16.80
2019-05-30T09:00:30.640Z,16.80
2019-05-30T09:02:58.426Z,16.80
2019-05-30T09:05:25.915Z,16.80
2019-05-30T09:07:53.409Z,16.80
2019-05-30T09:10:40.900Z,16.70
2019-05-30T09:13:08.832Z,16.70
2019-05-30T09:15:37.445Z,16.60
2019-05-30T09:18:05.539Z,16.70
2019-05-30T09:20:32.826Z,16.80
2019-05-30T09:23:00.260Z,17.00
2019-05-30T09:25:27.836Z,17.20
2019-05-30T09:27:55.197Z,17.30
2019-05-30T09:30:22.831Z,17.40
2019-05-30T09:32:50.444Z,17.60
2019-05-30T09:35:18.073Z,17.60
2019-05-30T09:37:46.086Z,17.70
2019-05-30T09:40:16.377Z,17.70
2019-05-30T09:42:44.835Z,17.60
2019-05-30T09:45:17.320Z,17.70
2019-05-30T09:47:47.086Z,17.80
2019-05-30T09:50:14.997Z,17.80
2019-05-30T09:52:45.148Z,17.80
2019-05-30T09:55:14.348Z,17.80
2019-05-30T09:57:42.999Z,18.00
2019-05-30T10:00:11.890Z,17.90
2019-05-30T10:02:39.349Z,17.90
2019-05-30T10:05:07.355Z,18.00
2019-05-30T10:07:35.148Z,18.00
2019-05-30T10:10:03.810Z,18.00
2019-05-30T10:12:31.564Z,18.20
2019-05-30T10:14:59.227Z,18.40
2019-05-30T10:17:26.753Z,18.60
2019-05-30T10:19:55.186Z,18.80
2019-05-30T10:22:22.570Z,18.90
2019-05-30T10:24:51.221Z,18.90
2019-05-30T10:27:18.850Z,19.00
2019-05-30T10:29:47.661Z,19.00
2019-05-30T10:32:15.279Z,19.10
2019-05-30T10:34:42.840Z,19.00
2019-05-30T10:37:10.215Z,19.00
2019-05-30T10:39:37.821Z,18.80
2019-05-30T10:42:05.658Z,18.60
2019-05-30T10:44:33.115Z,18.40
2019-05-30T10:47:00.531Z,18.20
2019-05-30T10:49:34.595Z,18.00
2019-05-30T10:51:59.217Z,17.70
2019-05-30T10:54:26.690Z,17.40
2019-05-30T10:56:54.033Z,17.20
2019-05-30T10:59:21.506Z,17.10
2019-05-30T11:01:50.238Z,17.00
2019-05-30T11:04:17.954Z,17.00
2019-05-30T11:07:34.230Z,17.00
2019-05-30T11:10:09.637Z,16.90
2019-05-30T11:12:37.289Z,16.70
2019-05-30T11:15:09.614Z,16.70
2019-05-30T11:17:37.190Z,16.60
2019-05-30T11:20:05.911Z,16.70
2019-05-30T11:22:33.507Z,16.70
2019-05-30T11:25:00.882Z,16.80
2019-05-30T11:27:28.242Z,16.80
2019-05-30T11:29:56.685Z,16.80
2019-05-30T11:32:24.394Z,16.90
2019-05-30T11:34:53.044Z,17.00
2019-05-30T11:37:20.650Z,16.90
2019-05-30T11:39:49.060Z,16.90
2019-05-30T11:42:17.703Z,17.00
2019-05-30T11:44:45.535Z,16.90
2019-05-30T11:47:16.274Z,16.80
2019-05-30T11:49:43.677Z,16.80
2019-05-30T11:52:10.970Z,16.60
2019-05-30T11:54:38.412Z,16.60
2019-05-30T11:57:06.000Z,16.50
2019-05-30T11:59:33.337Z,16.50
2019-05-30T12:02:01.089Z,16.40
2019-05-30T12:04:28.578Z,16.40
2019-05-30T12:06:56.823Z,16.30
2019-05-30T12:09:24.397Z,16.30
2019-05-30T12:11:53.079Z,16.20
2019-05-30T12:14:21.562Z,16.20
2019-05-30T12:16:49.185Z,16.10
2019-05-30T12:19:16.607Z,16.10
2019-05-30T12:21:44.683Z,16.00
2019-05-30T12:24:12.031Z,16.00
2019-05-30T12:26:39.345Z,15.90
2019-05-30T12:29:06.823Z,15.90
2019-05-30T12:31:34.403Z,15.80
2019-05-30T12:34:02.725Z,15.70
2019-05-30T12:36:32.729Z,15.60
2019-05-30T12:39:00.448Z,15.60
2019-05-30T12:41:27.817Z,15.40
2019-05-30T12:43:55.158Z,15.40
2019-05-30T12:46:22.686Z,15.50
2019-05-30T12:48:51.775Z,15.40
2019-05-30T12:51:19.237Z,15.40
2019-05-30T12:53:46.768Z,15.40
2019-05-30T12:56:14.673Z,15.60
2019-05-30T12:58:42.416Z,15.50
2019-05-30T13:01:09.898Z,15.50
2019-05-30T13:03:37.195Z,15.70
2019-05-30T13:06:04.732Z,15.50
2019-05-30T13:08:32.467Z,15.50
2019-05-30T13:11:01.536Z,15.40
2019-05-30T13:13:29.318Z,15.40
2019-05-30T13:15:58.674Z,15.40
2019-05-30T13:18:26.212Z,15.30
2019-05-30T13:20:53.674Z,15.30
2019-05-30T13:23:21.117Z,15.40
2019-05-30T13:25:49.464Z,15.50
2019-05-30T13:28:17.715Z,15.50
2019-05-30T13:30:46.224Z,15.60
2019-05-30T13:33:15.472Z,15.70
2019-05-30T13:35:42.816Z,15.70
2019-05-30T13:38:25.494Z,15.70
2019-05-30T13:40:40.266Z,15.60
2019-05-30T13:43:08.023Z,15.60
2019-05-30T13:45:39.258Z,15.50
2019-05-30T13:48:06.833Z,15.50
2019-05-30T13:50:36.923Z,15.50
2019-05-30T13:53:07.407Z,15.50
2019-05-30T13:55:35.245Z,15.50
2019-05-30T13:58:03.634Z,15.60
2019-05-30T14:00:31.563Z,15.70
2019-05-30T14:02:59.932Z,15.70
2019-05-30T14:05:27.843Z,15.70
2019-05-30T14:07:55.275Z,15.60
2019-05-30T14:10:22.681Z,15.60
2019-05-30T14:12:50.024Z,15.50
2019-05-30T14:15:17.667Z,15.40
2019-05-30T14:17:45.185Z,15.40
2019-05-30T14:20:14.648Z,15.30
2019-05-30T14:22:42.795Z,15.30
2019-05-30T14:25:12.981Z,15.30
2019-05-30T14:27:40.365Z,15.40
2019-05-30T14:30:09.005Z,15.40
2019-05-30T14:32:36.723Z,15.40
2019-05-30T14:35:06.416Z,15.30
2019-05-30T14:37:34.916Z,15.10
2019-05-30T14:40:03.022Z,15.10
2019-05-30T14:42:31.094Z,15.00
2019-05-30T14:44:58.413Z,15.10
2019-05-30T14:47:25.814Z,15.10
2019-05-30T14:49:53.240Z,14.90
2019-05-30T14:52:20.732Z,14.80
2019-05-30T14:54:48.088Z,14.80
2019-05-30T14:57:15.517Z,14.60
2019-05-30T14:59:42.875Z,14.70
2019-05-30T15:02:11.266Z,14.70
2019-05-30T15:04:38.636Z,14.70
2019-05-30T15:07:07.337Z,14.70
2019-05-30T15:09:34.855Z,14.80
2019-05-30T15:12:02.287Z,14.80
2019-05-30T15:14:29.859Z,14.80
2019-05-30T15:16:57.720Z,14.90
2019-05-30T15:19:25.757Z,14.90
2019-05-30T15:21:54.686Z,14.90
2019-05-30T15:24:22.716Z,14.90
2019-05-30T15:26:50.583Z,14.80
2019-05-30T15:29:19.081Z,14.80
2019-05-30T15:31:47.007Z,14.60
2019-05-30T15:34:15.152Z,14.50
2019-05-30T15:36:42.546Z,14.40
2019-05-30T15:39:11.200Z,14.30
2019-05-30T15:41:39.243Z,14.40
2019-05-30T15:44:07.491Z,14.30
2019-05-30T15:46:35.444Z,14.20
2019-05-30T15:49:03.031Z,14.10
2019-05-30T15:51:30.974Z,14.00
2019-05-30T15:54:00.526Z,14.00
2019-05-30T15:56:28.011Z,13.90
2019-05-30T15:58:55.424Z,13.90
2019-05-30T16:01:23.216Z,13.80
2019-05-30T16:03:50.946Z,13.70
2019-05-30T16:07:20.927Z,13.80
2019-05-30T16:09:53.097Z,13.70
2019-05-30T16:12:21.370Z,13.70
2019-05-30T16:14:49.037Z,13.70
2019-05-30T16:17:29.114Z,13.80
2019-05-30T16:19:56.953Z,13.80
2019-05-30T16:22:25.602Z,13.90
2019-05-30T16:24:53.001Z,13.90
2019-05-30T16:27:21.880Z,13.90
2019-05-30T16:29:49.479Z,13.90
2019-05-30T16:38:09.666Z,13.80
2019-05-30T16:40:37.189Z,13.70
2019-05-30T16:43:04.504Z,13.70
2019-05-30T16:45:31.958Z,13.60
2019-05-30T16:47:59.414Z,13.70
2019-05-30T16:50:27.156Z,13.60
2019-05-30T16:52:55.020Z,13.60
2019-05-30T16:55:23.463Z,13.60
2019-05-30T16:57:51.202Z,13.60
2019-05-30T17:00:21.853Z,13.60
2019-05-30T17:02:49.474Z,13.60
2019-05-30T17:05:17.098Z,13.60
2019-05-30T17:07:44.449Z,13.60
2019-05-30T17:10:23.314Z,13.60
2019-05-30T17:12:42.904Z,13.60
2019-05-30T17:15:11.970Z,13.50
2019-05-30T17:17:39.394Z,13.50
2019-05-30T17:20:07.389Z,13.50
2019-05-30T17:22:34.819Z,13.40
2019-05-30T17:25:02.435Z,13.30
2019-05-30T17:27:30.041Z,13.20
2019-05-30T17:29:57.727Z,13.20
2019-05-30T17:32:34.041Z,13.20
2019-05-30T17:35:05.520Z,13.10
2019-05-30T17:37:35.886Z,13.10
2019-05-30T17:40:04.510Z,13.00
2019-05-30T17:42:32.065Z,13.00
2019-05-30T17:45:05.524Z,12.90
2019-05-30T17:47:33.067Z,12.80
2019-05-30T17:50:00.535Z,12.80
2019-05-30T17:52:28.474Z,12.60
2019-05-30T17:54:55.801Z,12.60
2019-05-30T17:57:23.951Z,12.30
2019-05-30T17:59:51.388Z,12.50
2019-05-30T18:02:24.348Z,12.30
2019-05-30T18:04:52.612Z,12.30
2019-05-30T18:07:20.815Z,12.30
2019-05-30T18:09:48.631Z,12.20
2019-05-30T18:12:15.983Z,12.10
2019-05-30T18:14:43.375Z,12.10
2019-05-30T18:17:11.637Z,12.00
2019-05-30T18:19:38.993Z,12.00
2019-05-30T18:22:07.581Z,11.90
2019-05-30T18:24:35.253Z,11.80
2019-05-30T18:27:02.829Z,11.80
2019-05-30T18:29:30.360Z,11.80
2019-05-30T18:32:02.084Z,11.70
2019-05-30T18:34:30.475Z,11.70
2019-05-30T18:36:58.023Z,11.50
2019-05-30T18:39:26.624Z,11.80
2019-05-30T18:41:54.422Z,11.80
2019-05-30T18:44:22.748Z,11.80
2019-05-30T18:46:51.666Z,11.80
2019-05-30T18:49:19.984Z,11.80
2019-05-30T18:51:48.174Z,11.80
2019-05-30T18:54:15.749Z,11.80
2019-05-30T18:56:45.185Z,11.90
2019-05-30T18:59:13.125Z,11.80
2019-05-30T19:01:40.908Z,11.90
2019-05-30T19:04:08.696Z,11.80
2019-05-30T19:06:36.425Z,11.80
2019-05-30T19:09:06.132Z,11.80
2019-05-30T19:11:36.280Z,11.90
2019-05-30T19:14:03.621Z,11.80
2019-05-30T19:16:32.414Z,11.80
2019-05-30T19:18:59.932Z,11.80
2019-05-30T19:21:27.906Z,11.70
2019-05-30T19:23:57.252Z,11.70
2019-05-30T19:26:26.268Z,11.70
2019-05-30T19:28:53.812Z,11.70
2019-05-30T19:31:21.481Z,11.70
2019-05-30T19:33:48.829Z,11.70
2019-05-30T19:36:16.298Z,11.70
2019-05-30T19:38:43.649Z,11.70
2019-05-30T19:41:10.977Z,11.70
2019-05-30T19:43:38.406Z,11.70
2019-05-30T19:46:06.095Z,11.70
2019-05-30T19:48:34.391Z,11.70
2019-05-30T19:51:02.157Z,11.70
2019-05-30T19:53:30.866Z,11.70
2019-05-30T19:55:58.315Z,11.70
2019-05-30T19:58:26.000Z,11.70
2019-05-30T20:00:58.430Z,11.70
2019-05-30T20:03:35.632Z,11.70
2019-05-30T20:05:53.217Z,11.70
2019-05-30T20:08:20.615Z,11.70
2019-05-30T20:10:48.059Z,11.70
2019-05-30T20:13:15.416Z,11.70
2019-05-30T20:15:42.800Z,11.70
2019-05-30T20:18:10.200Z,11.70
2019-05-30T20:20:50.395Z,11.70
2019-05-30T20:23:06.935Z,11.70
2019-05-30T20:25:34.725Z,11.70
2019-05-30T20:28:05.539Z,11.70
2019-05-30T20:30:33.518Z,11.80
2019-05-30T20:33:01.078Z,11.90
2019-05-30T20:35:30.170Z,11.80
2019-05-30T20:38:00.929Z,11.80
2019-05-30T20:40:27.399Z,11.80
2019-05-30T20:42:54.965Z,11.80
2019-05-30T20:45:23.031Z,11.80
2019-05-30T20:47:50.350Z,12.10
2019-05-30T20:50:18.216Z,11.80
2019-05-30T20:52:45.797Z,11.80
2019-05-30T20:55:15.103Z,11.90
2019-05-30T20:57:43.334Z,11.80
2019-05-30T21:00:13.517Z,11.80
2019-05-30T21:02:41.054Z,11.90
2019-05-30T21:05:12.341Z,11.90
2019-05-30T21:07:41.941Z,11.90
2019-05-30T21:10:10.935Z,11.90
2019-05-30T21:12:43.007Z,11.90
2019-05-30T21:15:07.867Z,11.90
2019-05-30T21:17:35.853Z,11.90
2019-05-30T21:20:04.176Z,11.90
2019-05-30T21:22:31.573Z,11.90
2019-05-30T21:24:59.071Z,11.90
2019-05-30T21:27:26.392Z,11.90
2019-05-30T21:29:53.707Z,11.90
2019-05-30T21:32:21.161Z,11.90
2019-05-30T21:34:49.273Z,11.90
2019-05-30T21:37:16.920Z,11.90
2019-05-30T21:39:46.186Z,11.90
2019-05-30T21:42:13.592Z,11.90
2019-05-30T21:44:40.997Z,11.90
2019-05-30T21:47:08.748Z,11.90
2019-05-30T21:49:36.099Z,11.90
2019-05-30T21:52:03.662Z,11.90
2019-05-30T21:54:32.949Z,11.90
2019-05-30T21:57:01.454Z,11.90
2019-05-30T21:59:28.749Z,11.90
2019-05-30T22:01:57.554Z,11.80
2019-05-30T22:04:25.388Z,11.80
2019-05-30T22:06:52.822Z,11.80
2019-05-30T22:09:20.314Z,11.70
2019-05-30T22:11:47.802Z,11.80
2019-05-30T22:14:15.352Z,11.80
2019-05-30T22:16:44.068Z,11.80
2019-05-30T22:19:11.452Z,11.80
2019-05-30T22:21:39.037Z,11.80
2019-05-30T22:24:08.349Z,11.70
2019-05-30T22:26:35.902Z,11.70
2019-05-30T22:29:04.055Z,11.90
2019-05-30T22:31:31.492Z,11.70
2019-05-30T22:33:58.980Z,11.80
2019-05-30T22:36:27.342Z,11.80
2019-05-30T22:38:54.941Z,11.80
2019-05-30T22:41:23.705Z,11.80
2019-05-30T22:43:51.066Z,11.80
2019-05-30T22:46:18.397Z,11.80
2019-05-30T22:48:46.479Z,11.80
2019-05-30T22:51:14.049Z,11.90
2019-05-30T22:53:41.450Z,11.90
2019-05-30T22:56:08.959Z,11.90
2019-05-30T22:58:36.476Z,11.90
2019-05-30T23:01:04.086Z,11.90
2019-05-30T23:03:31.658Z,11.90
2019-05-30T23:05:59.027Z,11.90
2019-05-30T23:08:26.400Z,11.90
2019-05-30T23:10:53.885Z,11.90
2019-05-30T23:13:21.523Z,11.90
2019-05-30T23:15:49.992Z,11.90
2019-05-30T23:18:17.402Z,11.90
2019-05-30T23:20:44.911Z,11.90
2019-05-30T23:23:12.351Z,11.90
2019-05-30T23:25:39.962Z,11.90
2019-05-30T23:28:08.462Z,11.90
2019-05-30T23:30:35.958Z,11.90
2019-05-30T23:33:03.725Z,11.90
2019-05-30T23:35:31.186Z,11.90
2019-05-30T23:37:58.867Z,11.90
2019-05-30T23:40:26.370Z,11.90
2019-05-30T23:42:55.047Z,11.70
2019-05-30T23:45:22.582Z,11.90
2019-05-30T23:47:50.019Z,11.90
2019-05-30T23:50:17.883Z,11.90
2019-05-30T23:52:48.268Z,11.90
2019-05-30T23:55:15.802Z,11.90
2019-05-30T23:57:43.298Z,11.90
